createdAt,value
2023-05-11T00:00:40.607Z,3.10
2023-05-11T00:03:07.964Z,2.95
2023-05-11T00:05:35.479Z,3.35
2023-05-11T00:08:02.908Z,3.50
2023-05-11T00:10:30.692Z,3.53
2023-05-11T00:12:58.282Z,3.42
2023-05-11T00:15:25.835Z,3.30
2023-05-11T00:17:53.210Z,3.40
2023-05-11T00:20:21.903Z,3.22
2023-05-11T00:22:49.519Z,3.53
2023-05-11T00:25:16.950Z,3.22
2023-05-11T00:27:46.279Z,3.40
2023-05-11T00:30:17.323Z,3.67
2023-05-11T00:32:45.662Z,3.25
2023-05-11T00:35:13.153Z,3.38
2023-05-11T00:37:41.470Z,3.17
2023-05-11T00:40:09.195Z,3.08
2023-05-11T00:42:36.574Z,3.78
2023-05-11T00:45:04.420Z,3.97
2023-05-11T00:47:32.151Z,3.17
2023-05-11T00:49:59.699Z,3.13
2023-05-11T00:52:27.696Z,3.08
2023-05-11T00:54:55.019Z,3.17
2023-05-11T00:57:22.378Z,3.08
2023-05-11T00:59:49.833Z,3.22
2023-05-11T01:02:18.025Z,3.63
2023-05-11T01:04:45.879Z,3.45
2023-05-11T01:07:16.343Z,3.28
2023-05-11T01:10:04.089Z,3.22
2023-05-11T01:12:50.893Z,3.90
2023-05-11T01:15:41.547Z,3.25
2023-05-11T01:18:38.304Z,3.50
2023-05-11T01:21:14.469Z,3.75
2023-05-11T01:24:12.985Z,3.63
2023-05-11T01:26:55.312Z,3.35
2023-05-11T01:29:44.092Z,3.80
2023-05-11T01:32:31.363Z,3.17
2023-05-11T01:35:06.535Z,3.28
2023-05-11T01:37:35.201Z,3.33
2023-05-11T01:40:10.938Z,3.60
2023-05-11T01:42:55.110Z,3.25
2023-05-11T01:45:24.730Z,3.92
2023-05-11T01:47:53.628Z,3.35
2023-05-11T01:50:24.740Z,3.50
2023-05-11T01:52:53.791Z,3.40
2023-05-11T01:55:24.033Z,3.67
2023-05-11T01:57:54.794Z,3.40
2023-05-11T02:00:23.759Z,3.90
2023-05-11T02:02:56.051Z,3.72
2023-05-11T02:07:54.685Z,3.42
2023-05-11T02:10:25.644Z,3.47
2023-05-11T02:12:54.203Z,3.30
2023-05-11T02:15:24.234Z,3.38
2023-05-11T02:17:54.429Z,3.40
2023-05-11T02:20:22.607Z,3.30
2023-05-11T02:22:50.901Z,4.32
2023-05-11T02:25:18.860Z,3.70
2023-05-11T02:27:47.130Z,3.42
2023-05-11T02:30:14.817Z,3.28
2023-05-11T02:32:51.751Z,3.70
2023-05-11T02:35:46.191Z,3.55
2023-05-11T02:38:15.611Z,3.83
2023-05-11T02:40:47.593Z,3.45
2023-05-11T02:43:24.894Z,3.40
2023-05-11T02:46:02.715Z,3.88
2023-05-11T02:48:37.897Z,3.13
2023-05-11T02:51:07.892Z,3.13
2023-05-11T02:53:43.176Z,3.50
2023-05-11T02:56:10.849Z,3.60
2023-05-11T02:58:38.495Z,3.80
2023-05-11T03:01:15.741Z,3.80
2023-05-11T03:03:43.387Z,3.60
2023-05-11T03:06:10.910Z,3.83
2023-05-11T03:08:38.535Z,3.33
2023-05-11T03:11:06.626Z,3.70
2023-05-11T03:13:34.886Z,3.58
2023-05-11T03:16:06.249Z,3.40
2023-05-11T03:18:35.323Z,3.90
2023-05-11T03:21:03.163Z,3.47
2023-05-11T03:23:31.896Z,3.70
2023-05-11T03:26:00.516Z,3.70
2023-05-11T03:28:30.115Z,3.55
2023-05-11T03:31:07.299Z,3.70
2023-05-11T03:33:34.871Z,3.67
2023-05-11T03:36:04.742Z,3.67
2023-05-11T03:38:36.281Z,3.08
2023-05-11T03:43:36.339Z,3.63
2023-05-11T03:46:05.472Z,3.30
2023-05-11T03:48:33.552Z,3.63
2023-05-11T03:51:01.268Z,3.55
2023-05-11T03:53:28.768Z,3.85
2023-05-11T03:55:56.363Z,3.58
2023-05-11T03:58:24.086Z,4.50
2023-05-11T04:00:51.964Z,3.17
2023-05-11T04:03:19.500Z,3.47
2023-05-11T04:05:47.147Z,3.03
2023-05-11T04:08:14.810Z,3.22
2023-05-11T04:10:42.286Z,3.22
2023-05-11T04:13:09.519Z,3.65
2023-05-11T04:15:37.891Z,3.60
2023-05-11T04:18:05.332Z,3.55
2023-05-11T04:20:32.694Z,3.33
2023-05-11T04:22:59.951Z,3.60
2023-05-11T04:25:27.702Z,3.70
2023-05-11T04:27:55.107Z,3.78
2023-05-11T04:30:22.701Z,3.40
2023-05-11T04:32:50.022Z,3.20
2023-05-11T04:35:17.489Z,3.80
2023-05-11T04:37:44.827Z,3.45
2023-05-11T04:40:13.264Z,3.42
2023-05-11T04:42:42.348Z,3.23
2023-05-11T04:45:15.258Z,3.20
2023-05-11T04:47:43.379Z,3.65
2023-05-11T04:50:11.592Z,3.60
2023-05-11T04:52:38.805Z,3.40
2023-05-11T04:55:06.542Z,3.55
2023-05-11T04:57:34.909Z,3.70
2023-05-11T05:00:04.229Z,4.05
2023-05-11T05:02:32.792Z,4.05
2023-05-11T05:05:00.976Z,3.60
2023-05-11T05:07:28.279Z,3.80
2023-05-11T05:09:56.638Z,3.63
2023-05-11T05:12:24.243Z,3.63
2023-05-11T05:14:51.821Z,3.30
2023-05-11T05:17:19.297Z,3.72
2023-05-11T05:19:46.676Z,3.50
2023-05-11T05:22:14.128Z,3.65
2023-05-11T05:24:41.587Z,3.60
2023-05-11T05:27:09.519Z,3.33
2023-05-11T05:29:36.906Z,2.97
2023-05-11T05:32:04.567Z,3.67
2023-05-11T05:34:31.919Z,3.25
2023-05-11T05:36:59.243Z,3.42
2023-05-11T05:39:27.521Z,3.08
2023-05-11T05:41:54.925Z,3.60
2023-05-11T05:44:23.005Z,3.28
2023-05-11T05:46:50.918Z,3.50
2023-05-11T05:49:18.288Z,3.08
2023-05-11T05:51:45.701Z,3.28
2023-05-11T05:54:13.670Z,3.42
2023-05-11T05:56:41.087Z,3.10
2023-05-11T05:59:10.184Z,3.20
2023-05-11T06:01:41.669Z,2.83
2023-05-11T06:04:09.137Z,2.97
2023-05-11T06:06:36.691Z,3.10
2023-05-11T06:09:04.098Z,3.35
2023-05-11T06:11:31.412Z,3.15
2023-05-11T06:13:59.185Z,4.20
2023-05-11T06:16:28.114Z,3.22
2023-05-11T06:18:55.531Z,3.35
2023-05-11T06:21:23.091Z,2.80
2023-05-11T06:23:50.535Z,3.05
2023-05-11T06:26:17.957Z,3.22
2023-05-11T06:28:45.429Z,2.65
2023-05-11T06:31:15.841Z,2.95
2023-05-11T06:33:44.354Z,3.00
2023-05-11T06:36:20.217Z,3.17
2023-05-11T06:38:47.550Z,3.03
2023-05-11T06:41:15.014Z,2.97
2023-05-11T06:43:42.506Z,2.75
2023-05-11T06:46:22.387Z,2.72
2023-05-11T06:48:50.621Z,3.08
2023-05-11T06:51:18.860Z,2.60
2023-05-11T06:53:46.144Z,2.63
2023-05-11T06:56:13.431Z,3.00
2023-05-11T06:58:42.616Z,2.70
2023-05-11T07:01:11.356Z,2.78
2023-05-11T07:03:38.755Z,2.90
2023-05-11T07:06:06.283Z,2.67
2023-05-11T07:08:34.212Z,2.90
2023-05-11T07:11:01.750Z,2.50
2023-05-11T07:13:29.120Z,2.80
2023-05-11T07:15:57.795Z,2.72
2023-05-11T07:18:25.218Z,2.20
2023-05-11T07:20:52.620Z,2.17
2023-05-11T07:23:20.028Z,2.25
2023-05-11T07:25:47.257Z,2.22
2023-05-11T07:28:14.948Z,2.45
2023-05-11T07:30:42.212Z,2.20
2023-05-11T07:33:09.772Z,2.70
2023-05-11T07:35:37.101Z,2.33
2023-05-11T07:38:06.357Z,2.30
2023-05-11T07:40:34.098Z,2.38
2023-05-11T07:43:02.093Z,2.53
2023-05-11T07:45:29.332Z,2.33
2023-05-11T07:47:56.513Z,2.58
2023-05-11T07:50:24.544Z,2.78
2023-05-11T07:52:52.399Z,2.13
2023-05-11T07:55:20.751Z,2.20
2023-05-11T07:57:48.305Z,2.00
2023-05-11T08:00:16.311Z,2.30
2023-05-11T08:02:44.269Z,2.13
2023-05-11T08:05:11.827Z,2.30
2023-05-11T08:07:41.536Z,2.10
2023-05-11T08:10:09.691Z,2.60
2023-05-11T08:12:37.511Z,2.10
2023-05-11T08:15:06.182Z,1.90
2023-05-11T08:17:33.672Z,2.40
2023-05-11T08:20:00.966Z,2.35
2023-05-11T08:22:28.469Z,1.75
2023-05-11T08:24:55.735Z,2.00
2023-05-11T08:27:23.215Z,2.05
2023-05-11T08:29:51.639Z,1.85
2023-05-11T08:32:19.221Z,2.00
2023-05-11T08:34:47.023Z,2.15
2023-05-11T08:37:14.579Z,2.30
2023-05-11T08:39:46.639Z,2.20
2023-05-11T08:42:17.914Z,1.75
2023-05-11T08:49:43.787Z,2.00
2023-05-11T08:52:12.969Z,1.98
2023-05-11T08:54:40.352Z,2.30
2023-05-11T08:57:08.981Z,1.95
2023-05-11T08:59:36.801Z,2.10
2023-05-11T09:02:06.207Z,2.50
2023-05-11T09:04:34.688Z,2.40
2023-05-11T09:07:02.557Z,2.00
2023-05-11T09:09:29.872Z,2.20
2023-05-11T09:11:57.736Z,2.30
2023-05-11T09:14:27.614Z,2.40
2023-05-11T09:16:55.268Z,2.10
2023-05-11T09:19:22.621Z,2.35
2023-05-11T09:21:52.406Z,1.80
2023-05-11T09:24:21.479Z,2.38
2023-05-11T09:26:49.683Z,2.00
2023-05-11T09:29:20.860Z,2.10
2023-05-11T09:31:48.767Z,2.00
2023-05-11T09:34:20.603Z,1.98
2023-05-11T09:36:53.424Z,2.10
2023-05-11T09:39:41.664Z,2.17
2023-05-11T09:44:47.119Z,2.13
2023-05-11T09:47:17.811Z,1.83
2023-05-11T09:49:46.073Z,2.10
2023-05-11T09:52:15.947Z,1.63
2023-05-11T09:54:45.359Z,1.98
2023-05-11T09:57:30.840Z,2.05
2023-05-11T09:59:59.991Z,1.63
2023-05-11T10:02:30.019Z,2.22
2023-05-11T10:05:01.358Z,2.00
2023-05-11T10:07:34.162Z,2.10
2023-05-11T10:10:06.494Z,2.03
2023-05-11T10:12:38.430Z,1.65
2023-05-11T10:15:08.450Z,2.00
2023-05-11T10:17:37.161Z,1.70
2023-05-11T10:20:06.844Z,1.90
2023-05-11T10:22:34.400Z,1.70
2023-05-11T10:25:03.248Z,2.33
2023-05-11T10:27:32.265Z,1.77
2023-05-11T10:30:00.173Z,1.80
2023-05-11T10:32:28.810Z,1.70
2023-05-11T10:34:57.130Z,1.88
2023-05-11T10:37:25.693Z,2.17
2023-05-11T10:39:53.030Z,1.95
2023-05-11T10:42:56.812Z,1.73
2023-05-11T10:45:48.937Z,1.88
2023-05-11T10:48:36.993Z,2.00
2023-05-11T10:51:14.171Z,2.28
2023-05-11T10:53:54.888Z,1.83
2023-05-11T10:56:53.271Z,2.17
2023-05-11T11:00:07.563Z,2.03
2023-05-11T11:02:35.265Z,1.90
2023-05-11T11:05:06.107Z,1.85
2023-05-11T11:07:59.275Z,1.58
2023-05-11T11:10:51.900Z,2.00
2023-05-11T11:13:20.460Z,1.70
2023-05-11T11:15:56.409Z,1.83
2023-05-11T11:18:28.314Z,2.00
2023-05-11T11:20:57.932Z,1.50
2023-05-11T11:23:40.644Z,1.90
2023-05-11T11:26:10.251Z,1.80
2023-05-11T11:29:00.915Z,2.22
2023-05-11T11:31:32.643Z,2.03
2023-05-11T11:34:40.469Z,2.08
2023-05-11T11:37:09.157Z,2.10
2023-05-11T11:39:51.469Z,18.13
2023-05-11T11:42:40.174Z,2.70
2023-05-11T11:45:28.574Z,6.75
2023-05-11T11:48:15.943Z,9.13
2023-05-11T11:50:48.343Z,6.28
2023-05-11T11:53:43.997Z,3.33
2023-05-11T11:56:17.392Z,9.00
2023-05-11T11:58:44.825Z,10.98
2023-05-11T12:01:21.643Z,5.20
2023-05-11T12:04:04.742Z,4.18
2023-05-11T12:06:40.193Z,5.80
2023-05-11T12:09:08.890Z,5.38
2023-05-11T12:11:37.845Z,3.17
2023-05-11T12:14:05.343Z,1.83
2023-05-11T12:16:32.861Z,2.20
2023-05-11T12:19:02.169Z,1.60
2023-05-11T12:21:34.181Z,2.17
2023-05-11T12:24:03.294Z,2.50
2023-05-11T12:26:32.325Z,2.28
2023-05-11T12:29:14.147Z,2.00
2023-05-11T12:31:43.130Z,1.70
2023-05-11T12:34:17.599Z,1.73
2023-05-11T12:36:48.720Z,1.90
2023-05-11T12:39:27.456Z,1.67
2023-05-11T12:41:56.675Z,1.70
2023-05-11T12:44:26.308Z,1.75
2023-05-11T12:46:54.441Z,1.70
2023-05-11T12:49:26.418Z,1.40
2023-05-11T12:52:01.501Z,1.65
2023-05-11T12:54:34.145Z,1.42
2023-05-11T12:57:03.127Z,1.60
2023-05-11T12:59:41.146Z,2.20
2023-05-11T13:02:10.061Z,1.50
2023-05-11T13:04:38.942Z,1.63
2023-05-11T13:07:06.449Z,2.42
2023-05-11T13:09:34.053Z,1.80
2023-05-11T13:12:11.129Z,1.70
2023-05-11T13:14:39.617Z,1.70
2023-05-11T13:17:07.071Z,1.88
2023-05-11T13:19:35.071Z,1.48
2023-05-11T13:22:02.360Z,1.88
2023-05-11T13:24:29.837Z,1.60
2023-05-11T13:26:58.977Z,1.60
2023-05-11T13:29:27.312Z,1.80
2023-05-11T13:31:54.941Z,1.90
2023-05-11T13:34:22.600Z,1.40
2023-05-11T13:36:50.560Z,1.30
2023-05-11T13:39:18.048Z,1.80
2023-05-11T13:41:46.196Z,2.00
2023-05-11T13:44:13.746Z,1.70
2023-05-11T13:46:41.200Z,2.00
2023-05-11T13:49:08.808Z,1.73
2023-05-11T13:51:36.361Z,1.85
2023-05-11T13:54:04.080Z,1.55
2023-05-11T13:56:31.954Z,2.78
2023-05-11T13:59:00.135Z,1.70
2023-05-11T14:01:27.958Z,2.17
2023-05-11T14:03:56.756Z,1.70
2023-05-11T14:06:25.739Z,2.05
2023-05-11T14:08:53.913Z,2.10
2023-05-11T14:11:21.770Z,2.28
2023-05-11T14:13:49.407Z,2.20
2023-05-11T14:16:17.015Z,1.83
2023-05-11T14:18:44.731Z,1.58
2023-05-11T14:21:12.471Z,1.95
2023-05-11T14:23:44.977Z,1.73
2023-05-11T14:26:17.627Z,1.80
2023-05-11T14:28:45.154Z,2.58
2023-05-11T14:31:12.965Z,2.25
2023-05-11T14:33:40.443Z,2.03
2023-05-11T14:36:09.272Z,1.70
2023-05-11T14:38:36.790Z,2.15
2023-05-11T14:41:04.097Z,2.40
2023-05-11T14:43:31.686Z,2.40
2023-05-11T14:45:59.151Z,2.33
2023-05-11T14:48:26.498Z,2.10
2023-05-11T14:50:53.926Z,1.85
2023-05-11T14:53:21.278Z,1.90
2023-05-11T14:55:48.808Z,1.80
2023-05-11T14:58:16.178Z,1.80
2023-05-11T15:00:44.053Z,2.00
2023-05-11T15:03:11.467Z,1.80
2023-05-11T15:05:39.454Z,1.90
2023-05-11T15:08:15.507Z,1.55
2023-05-11T15:10:49.835Z,1.92
2023-05-11T15:13:17.080Z,1.45
2023-05-11T15:15:45.296Z,1.98
2023-05-11T15:18:14.471Z,2.00
2023-05-11T15:20:42.733Z,1.83
2023-05-11T15:23:10.490Z,1.73
2023-05-11T15:25:37.917Z,1.80
2023-05-11T15:28:06.490Z,1.80
2023-05-11T15:30:33.827Z,2.03
2023-05-11T15:33:01.324Z,1.90
2023-05-11T15:35:28.637Z,1.90
2023-05-11T15:37:56.298Z,1.92
2023-05-11T15:40:24.640Z,1.80
2023-05-11T15:42:51.803Z,2.20
2023-05-11T15:45:19.342Z,1.80
2023-05-11T15:47:46.965Z,1.60
2023-05-11T15:50:14.635Z,1.80
2023-05-11T15:52:42.094Z,1.77
2023-05-11T15:55:09.516Z,1.90
2023-05-11T15:57:37.220Z,2.03
2023-05-11T16:00:05.093Z,1.70
2023-05-11T16:02:35.145Z,2.20
2023-05-11T16:05:02.903Z,2.00
2023-05-11T16:07:30.626Z,1.45
2023-05-11T16:09:58.644Z,1.98
2023-05-11T16:12:26.861Z,2.00
2023-05-11T16:14:54.944Z,1.85
2023-05-11T16:17:22.702Z,1.67
2023-05-11T16:19:50.435Z,1.73
2023-05-11T16:22:18.742Z,1.65
2023-05-11T16:24:46.857Z,2.17
2023-05-11T16:27:14.576Z,1.80
2023-05-11T16:29:42.778Z,1.65
2023-05-11T16:32:10.700Z,1.90
2023-05-11T16:34:41.367Z,1.85
2023-05-11T16:37:10.308Z,1.73
2023-05-11T16:39:37.676Z,2.50
2023-05-11T16:42:05.130Z,1.95
2023-05-11T16:44:32.462Z,1.90
2023-05-11T16:47:00.674Z,1.90
2023-05-11T16:49:28.547Z,1.70
2023-05-11T16:51:55.997Z,2.08
2023-05-11T16:54:23.457Z,1.60
2023-05-11T16:56:51.077Z,2.25
2023-05-11T16:59:18.550Z,2.00
2023-05-11T17:01:46.495Z,2.05
2023-05-11T17:04:14.141Z,2.03
2023-05-11T17:06:42.067Z,1.90
2023-05-11T17:09:09.637Z,2.50
2023-05-11T17:11:37.390Z,7.28
2023-05-11T17:14:05.032Z,6.93
2023-05-11T17:16:32.518Z,9.18
2023-05-11T17:19:00.110Z,12.82
2023-05-11T17:21:28.916Z,6.40
2023-05-11T17:23:56.364Z,8.00
2023-05-11T17:26:27.506Z,8.75
2023-05-11T17:29:00.413Z,4.75
2023-05-11T17:31:27.883Z,5.15
2023-05-11T17:33:55.625Z,3.40
2023-05-11T17:36:22.975Z,2.63
2023-05-11T17:38:51.519Z,2.83
2023-05-11T17:41:19.033Z,2.55
2023-05-11T17:43:47.946Z,2.00
2023-05-11T17:46:16.373Z,2.50
2023-05-11T17:48:43.882Z,2.45
2023-05-11T17:51:11.167Z,2.40
2023-05-11T17:53:38.556Z,3.20
2023-05-11T17:56:08.268Z,3.88
2023-05-11T17:58:35.748Z,2.17
2023-05-11T18:01:11.397Z,2.40
2023-05-11T18:03:39.624Z,2.45
2023-05-11T18:06:08.315Z,2.25
2023-05-11T18:08:40.629Z,2.58
2023-05-11T18:11:10.538Z,2.22
2023-05-11T18:13:38.378Z,1.98
2023-05-11T18:16:06.840Z,2.35
2023-05-11T18:18:35.017Z,2.45
2023-05-11T18:21:07.033Z,5.18
2023-05-11T18:23:35.021Z,2.30
2023-05-11T18:26:02.769Z,2.25
2023-05-11T18:28:30.960Z,3.35
2023-05-11T18:30:58.796Z,2.20
2023-05-11T18:33:27.061Z,2.65
2023-05-11T18:35:55.535Z,2.70
2023-05-11T18:38:23.612Z,2.70
2023-05-11T18:40:51.855Z,2.28
2023-05-11T18:43:19.851Z,2.97
2023-05-11T18:45:48.071Z,3.00
2023-05-11T18:48:16.158Z,2.95
2023-05-11T18:50:44.083Z,2.63
2023-05-11T18:53:11.811Z,3.20
2023-05-11T18:55:51.998Z,3.30
2023-05-11T18:58:21.511Z,2.85
2023-05-11T19:00:50.114Z,2.80
2023-05-11T19:03:20.115Z,3.00
2023-05-11T19:05:49.704Z,3.28
2023-05-11T19:08:17.675Z,3.13
2023-05-11T19:10:47.456Z,3.30
2023-05-11T19:13:15.265Z,3.70
2023-05-11T19:15:44.356Z,3.75
2023-05-11T19:18:12.480Z,3.00
2023-05-11T19:20:40.336Z,3.25
2023-05-11T19:23:08.470Z,3.00
2023-05-11T19:25:36.660Z,3.10
2023-05-11T19:28:04.505Z,3.35
2023-05-11T19:30:32.695Z,3.03
2023-05-11T19:33:01.077Z,3.00
2023-05-11T19:35:28.709Z,3.25
2023-05-11T19:37:56.418Z,2.90
2023-05-11T19:42:56.094Z,2.65
2023-05-11T19:45:24.438Z,3.00
2023-05-11T19:47:52.272Z,3.42
2023-05-11T19:50:23.526Z,4.70
2023-05-11T19:52:53.269Z,4.95
2023-05-11T19:55:22.021Z,4.78
2023-05-11T19:57:50.053Z,5.00
2023-05-11T20:00:25.344Z,4.40
2023-05-11T20:02:54.506Z,4.47
2023-05-11T20:05:22.626Z,4.70
2023-05-11T20:07:50.783Z,5.13
2023-05-11T20:10:18.979Z,6.20
2023-05-11T20:12:47.095Z,6.53
2023-05-11T20:15:15.526Z,6.05
2023-05-11T20:17:43.589Z,5.22
2023-05-11T20:20:12.681Z,5.72
2023-05-11T20:22:40.877Z,5.47
2023-05-11T20:25:17.538Z,5.60
2023-05-11T20:27:47.208Z,5.93
2023-05-11T20:30:16.169Z,7.10
2023-05-11T20:35:15.848Z,7.53
2023-05-11T20:37:44.156Z,6.63
2023-05-11T20:40:12.471Z,7.30
2023-05-11T20:42:40.825Z,6.20
2023-05-11T20:45:09.097Z,6.35
2023-05-11T20:47:37.650Z,5.15
2023-05-11T20:50:06.886Z,4.85
2023-05-11T20:52:34.754Z,4.68
2023-05-11T20:55:02.855Z,4.50
2023-05-11T20:57:30.866Z,4.45
2023-05-11T21:02:30.140Z,4.32
2023-05-11T21:05:02.736Z,4.68
2023-05-11T21:07:31.063Z,4.55
2023-05-11T21:09:58.763Z,4.47
2023-05-11T21:12:26.932Z,5.45
2023-05-11T21:14:56.859Z,4.75
2023-05-11T21:17:25.317Z,4.93
2023-05-11T21:19:53.455Z,5.00
2023-05-11T21:22:22.028Z,4.60
2023-05-11T21:24:50.091Z,5.38
2023-05-11T21:27:17.865Z,5.20
2023-05-11T21:29:46.408Z,5.55
2023-05-11T21:32:14.506Z,4.85
2023-05-11T21:34:42.757Z,5.18
2023-05-11T21:37:10.608Z,4.65
2023-05-11T21:39:38.265Z,5.22
2023-05-11T21:42:06.918Z,5.10
2023-05-11T21:44:35.020Z,5.07
2023-05-11T21:47:03.616Z,5.30
2023-05-11T21:49:33.348Z,5.13
2023-05-11T21:52:01.039Z,4.57
2023-05-11T21:54:29.059Z,5.28
2023-05-11T21:56:56.800Z,4.90
2023-05-11T21:59:27.075Z,4.40
2023-05-11T22:01:57.692Z,4.82
2023-05-11T22:04:27.642Z,4.70
2023-05-11T22:07:01.075Z,4.50
2023-05-11T22:09:30.243Z,4.50
2023-05-11T22:11:58.464Z,5.25
2023-05-11T22:14:26.405Z,4.80
2023-05-11T22:16:53.769Z,5.00
2023-05-11T22:19:21.230Z,4.72
2023-05-11T22:21:50.292Z,4.60
2023-05-11T22:24:17.587Z,4.47
2023-05-11T22:26:45.044Z,4.82
2023-05-11T22:29:12.475Z,4.90
2023-05-11T22:31:39.870Z,4.88
2023-05-11T22:34:07.362Z,4.63
2023-05-11T22:36:34.659Z,5.15
2023-05-11T22:39:02.452Z,5.00
2023-05-11T22:41:29.708Z,4.75
2023-05-11T22:43:57.086Z,4.82
2023-05-11T22:46:24.459Z,4.97
2023-05-11T22:48:51.971Z,5.03
2023-05-11T22:51:19.393Z,5.20
2023-05-11T22:53:46.746Z,4.63
2023-05-11T22:56:14.442Z,4.80
2023-05-11T22:58:41.844Z,5.75
2023-05-11T23:01:09.331Z,5.18
2023-05-11T23:03:37.080Z,4.95
2023-05-11T23:06:04.698Z,4.93
2023-05-11T23:08:32.485Z,4.85
2023-05-11T23:10:59.953Z,5.43
2023-05-11T23:13:27.791Z,5.32
2023-05-11T23:15:55.382Z,5.35
2023-05-11T23:18:22.868Z,4.82
2023-05-11T23:20:56.151Z,5.28
2023-05-11T23:23:24.297Z,5.10
2023-05-11T23:25:52.189Z,4.43
2023-05-11T23:28:20.050Z,4.32
2023-05-11T23:30:47.518Z,4.78
2023-05-11T23:33:15.340Z,4.72
2023-05-11T23:35:42.727Z,5.00
2023-05-11T23:38:10.255Z,5.05
2023-05-11T23:40:38.823Z,4.47
2023-05-11T23:43:06.317Z,4.53
2023-05-11T23:45:33.554Z,4.95
2023-05-11T23:48:01.033Z,5.00
2023-05-11T23:50:28.405Z,4.47
2023-05-11T23:52:55.681Z,4.72
2023-05-11T23:55:24.461Z,5.07
2023-05-11T23:57:51.789Z,5.10
